Time;durP1;ratioP1;P1;durP2;ratioP2;P2;SDS_P1;SDS_P2;PMS_P1;PMS_P2;Temp;Humidity;BMP_temperature;BMP_pressure;BME280_temperature;BME280_humidity;BME280_pressure;Samples;Min_cycle;Max_cycle;Signal;HPM_P1;HPM_P2
2022/08/17 00:00:54;;;;;;;25.80;20.53;;;21.00;99.90;;;;;;4898419;29;20831;-46
2022/08/17 00:03:41;;;;;;;22.33;19.70;;;20.90;99.90;;;;;;4898301;29;20431;-46
2022/08/17 00:06:14;;;;;;;22.10;18.37;;;20.80;99.90;;;;;;4895528;29;20452;-46
2022/08/17 00:08:46;;;;;;;20.50;18.27;;;20.80;99.90;;;;;;4898154;29;20452;-46
2022/08/17 00:11:25;;;;;;;19.43;17.37;;;20.80;99.90;;;;;;4898179;29;20417;-46
2022/08/17 00:14:17;;;;;;;25.43;20.53;;;20.80;99.90;;;;;;4901808;29;20777;-46
2022/08/17 00:16:46;;;;;;;27.57;19.27;;;20.70;99.90;;;;;;4897643;29;20955;-46
2022/08/17 00:19:14;;;;;;;22.17;19.80;;;20.70;99.90;;;;;;4898035;29;20479;-46
2022/08/17 00:21:42;;;;;;;22.30;18.60;;;20.70;99.90;;;;;;4898181;29;20493;-46
2022/08/17 00:24:08;;;;;;;22.80;18.50;;;20.70;99.90;;;;;;4900343;29;20761;-46
2022/08/17 00:26:34;;;;;;;19.77;17.60;;;20.70;99.90;;;;;;4896630;29;20503;-46
2022/08/17 00:29:01;;;;;;;20.40;18.27;;;20.70;99.90;;;;;;4899532;29;20195;-46
2022/08/17 00:31:27;;;;;;;24.43;20.97;;;20.70;99.90;;;;;;4916894;29;20421;-47
2022/08/17 00:33:53;;;;;;;27.33;20.00;;;20.70;99.90;;;;;;4907212;29;20440;-46
2022/08/17 00:36:18;;;;;;;20.23;17.83;;;20.70;99.90;;;;;;4882766;29;20947;-46
2022/08/17 00:38:44;;;;;;;23.20;19.07;;;20.70;99.90;;;;;;4887270;29;20176;-47
2022/08/17 00:41:13;;;;;;;21.60;19.27;;;20.60;99.90;;;;;;4880846;29;20243;-46
2022/08/17 00:43:44;;;;;;;20.13;18.07;;;20.50;99.90;;;;;;4897219;29;20448;-46
2022/08/17 00:46:15;;;;;;;22.77;18.90;;;20.50;99.90;;;;;;4884275;29;20449;-46
2022/08/17 00:48:41;;;;;;;24.90;19.47;;;20.50;99.90;;;;;;4893309;29;20518;-46
2022/08/17 00:51:10;;;;;;;27.17;21.83;;;20.50;99.90;;;;;;4899284;29;20434;-47
2022/08/17 00:53:40;;;;;;;22.80;20.50;;;20.50;99.90;;;;;;4903362;29;20454;-46
2022/08/17 00:56:10;;;;;;;29.47;24.33;;;20.60;99.90;;;;;;4895117;29;20931;-47
2022/08/17 00:58:37;;;;;;;22.33;20.03;;;20.50;99.90;;;;;;4897377;29;20397;-46
2022/08/17 01:01:05;;;;;;;21.93;19.40;;;20.40;99.90;;;;;;4897270;29;20452;-47
2022/08/17 01:03:31;;;;;;;23.87;21.33;;;20.30;99.90;;;;;;4897213;29;20769;-46
2022/08/17 01:06:00;;;;;;;24.63;20.67;;;20.30;99.90;;;;;;4895432;29;20955;-46
2022/08/17 01:08:28;;;;;;;25.90;22.30;;;20.30;99.90;;;;;;4897391;29;20458;-47
2022/08/17 01:10:57;;;;;;;27.93;22.30;;;20.20;99.90;;;;;;4899527;29;20440;-46
2022/08/17 01:13:24;;;;;;;25.90;23.20;;;20.00;99.90;;;;;;4905999;29;20471;-46
2022/08/17 01:15:56;;;;;;;24.20;21.60;;;19.90;1.00;;;;;;4895400;29;20448;-47
2022/08/17 01:18:23;;;;;;;26.30;23.50;;;19.90;1.00;;;;;;4896127;29;20959;-47
2022/08/17 01:20:52;;;;;;;25.13;22.47;;;20.00;1.00;;;;;;4897056;29;20428;-46
2022/08/17 01:23:20;;;;;;;22.03;19.70;;;20.10;1.00;;;;;;4896950;29;20416;-46
2022/08/17 01:25:49;;;;;;;28.70;23.43;;;20.20;1.00;;;;;;4895412;29;20472;-47
2022/08/17 01:28:15;;;;;;;28.50;24.50;;;20.30;1.00;;;;;;4896898;29;20506;-46
2022/08/17 01:30:42;;;;;;;25.20;21.60;;;20.40;99.90;;;;;;4896876;29;20579;-46
2022/08/17 01:33:10;;;;;;;26.00;22.90;;;20.40;99.90;;;;;;4896646;29;20689;-46
2022/08/17 01:35:36;;;;;;;27.60;22.00;;;20.40;99.90;;;;;;4895152;29;20531;-46
2022/08/17 01:38:02;;;;;;;24.37;21.30;;;20.50;99.90;;;;;;4896567;29;20469;-47
2022/08/17 01:40:45;;;;;;;26.00;22.50;;;20.50;99.90;;;;;;4895471;29;20447;-47
2022/08/17 01:43:21;;;;;;;31.90;24.60;;;20.50;99.90;;;;;;4895367;29;20191;-46
2022/08/17 01:45:49;;;;;;;30.30;24.60;;;20.30;99.90;;;;;;4896585;29;20450;-47
2022/08/17 01:48:15;;;;;;;30.97;24.20;;;20.30;99.90;;;;;;4896486;29;20515;-47
2022/08/17 01:50:44;;;;;;;36.07;22.50;;;20.30;99.90;;;;;;4896410;29;20476;-47
2022/08/17 01:53:17;;;;;;;27.87;24.87;;;20.10;1.00;;;;;;4896369;29;20420;-46
2022/08/17 01:55:48;;;;;;;28.57;25.30;;;20.10;1.00;;;;;;4894675;29;20451;-46
2022/08/17 01:58:14;;;;;;;26.00;22.53;;;20.10;1.00;;;;;;4909817;29;20467;-47
2022/08/17 02:00:41;;;;;;;31.57;26.47;;;20.10;1.00;;;;;;4915362;29;20439;-46
2022/08/17 02:03:07;;;;;;;29.87;26.17;;;20.20;1.00;;;;;;4897217;29;20914;-46
2022/08/17 02:05:34;;;;;;;30.63;26.10;;;20.20;1.00;;;;;;4882847;29;20456;-47
2022/08/17 02:08:00;;;;;;;31.03;26.57;;;20.20;1.00;;;;;;4885599;29;20680;-46
2022/08/17 02:10:27;;;;;;;27.83;24.40;;;20.20;1.00;;;;;;4894912;29;20533;-47
2022/08/17 02:12:53;;;;;;;31.77;26.10;;;20.20;1.00;;;;;;4890205;29;20455;-46
2022/08/17 02:15:19;;;;;;;34.07;27.07;;;20.20;1.00;;;;;;4890707;29;20809;-47
2022/08/17 02:17:45;;;;;;;34.93;27.80;;;20.10;1.00;;;;;;4881757;29;20271;-46
2022/08/17 02:20:12;;;;;;;36.23;27.90;;;20.00;1.00;;;;;;4894217;29;20488;-47
2022/08/17 02:22:39;;;;;;;36.13;29.77;;;19.90;1.00;;;;;;4891554;29;20774;-47
2022/08/17 02:25:08;;;;;;;63.20;45.60;;;19.80;1.00;;;;;;4877753;29;20452;-46
2022/08/17 02:27:36;;;;;;;39.13;32.13;;;19.80;1.00;;;;;;4877458;29;20499;-47
2022/08/17 02:30:06;;;;;;;39.13;30.57;;;19.70;1.00;;;;;;4877267;29;20425;-46
2022/08/17 02:32:31;;;;;;;34.70;28.13;;;19.70;1.00;;;;;;4885144;29;20454;-46
2022/08/17 02:34:59;;;;;;;30.77;26.27;;;19.80;1.00;;;;;;4894529;29;20439;-46
2022/08/17 02:37:26;;;;;;;28.77;25.33;;;19.90;1.00;;;;;;4896176;29;20963;-46
2022/08/17 02:39:52;;;;;;;32.30;27.30;;;20.00;1.00;;;;;;4895094;29;21291;-46
2022/08/17 02:42:26;;;;;;;41.07;29.90;;;20.10;1.00;;;;;;4895815;29;20751;-46
2022/08/17 02:44:52;;;;;;;38.97;30.43;;;20.10;1.00;;;;;;4895611;29;20405;-47
2022/08/17 02:47:17;;;;;;;30.10;26.00;;;20.00;1.00;;;;;;4894297;29;20853;-47
2022/08/17 02:49:43;;;;;;;31.63;25.63;;;19.90;1.00;;;;;;4895751;29;20220;-46
2022/08/17 02:52:09;;;;;;;37.50;26.23;;;20.00;1.00;;;;;;4891626;29;20184;-46
2022/08/17 02:54:35;;;;;;;27.87;24.37;;;20.00;1.00;;;;;;4898628;29;20188;-47
2022/08/17 02:57:02;;;;;;;30.90;26.70;;;20.00;1.00;;;;;;4904863;29;20247;-47
2022/08/17 02:59:28;;;;;;;32.63;27.40;;;20.10;1.00;;;;;;4895768;29;20412;-46
2022/08/17 03:01:55;;;;;;;37.33;29.63;;;20.00;1.00;;;;;;4893842;29;20950;-47
2022/08/17 03:04:21;;;;;;;41.50;29.63;;;19.90;1.00;;;;;;4895569;29;20423;-47
2022/08/17 03:06:46;;;;;;;35.57;28.83;;;19.60;99.90;;;;;;4895741;29;20451;-47
2022/08/17 03:09:12;;;;;;;40.53;31.07;;;19.30;1.00;;;;;;4899355;29;20194;-47
2022/08/17 03:11:38;;;;;;;40.90;31.23;;;19.00;1.00;;;;;;4899393;29;20523;-47
2022/08/17 03:14:04;;;;;;;37.80;31.80;;;18.70;1.00;;;;;;4898713;29;20278;-47
2022/08/17 03:16:29;;;;;;;41.10;32.13;;;18.50;1.00;;;;;;4898005;29;20258;-47
2022/08/17 03:18:55;;;;;;;47.07;33.63;;;18.40;1.00;;;;;;4898907;29;20757;-47
2022/08/17 03:21:21;;;;;;;47.20;34.73;;;18.20;1.00;;;;;;4898059;29;20534;-47
2022/08/17 03:23:46;;;;;;;45.17;34.70;;;18.10;99.90;;;;;;4899050;29;20662;-47
2022/08/17 03:26:12;;;;;;;44.87;33.13;;;18.10;99.90;;;;;;4899130;29;20179;-47
2022/08/17 03:28:38;;;;;;;42.87;32.20;;;18.00;99.90;;;;;;4897775;29;20203;-47
2022/08/17 03:31:04;;;;;;;46.97;35.07;;;17.90;99.90;;;;;;4899063;29;20188;-47
2022/08/17 03:33:31;;;;;;;51.23;38.30;;;17.90;1.00;;;;;;4898765;29;20206;-47
2022/08/17 03:35:57;;;;;;;52.87;38.20;;;17.90;1.00;;;;;;4899030;29;20404;-47
2022/08/17 03:38:23;;;;;;;53.17;37.80;;;17.80;24.70;;;;;;4900335;29;20843;-47
2022/08/17 03:40:50;;;;;;;47.07;35.73;;;17.80;45.10;;;;;;4897839;29;20903;-47
2022/08/17 03:43:17;;;;;;;45.20;36.10;;;17.80;1.00;;;;;;4898833;29;20457;-47
2022/08/17 03:57:11;;;;;;;48.73;36.33;;;17.50;99.90;;;;;;4898948;29;20508;-47
2022/08/17 03:59:37;;;;;;;51.03;39.77;;;17.50;99.90;;;;;;4897396;29;20527;-47
2022/08/17 04:02:08;;;;;;;49.57;37.13;;;17.50;1.00;;;;;;4898508;29;20404;-47
2022/08/17 04:04:35;;;;;;;55.20;38.40;;;17.50;1.00;;;;;;4898857;29;20423;-47
2022/08/17 04:07:00;;;;;;;50.97;38.10;;;17.40;1.00;;;;;;4897564;29;20452;-47
2022/08/17 04:09:26;;;;;;;53.50;39.20;;;17.40;1.00;;;;;;4896763;29;20850;-47
2022/08/17 04:11:52;;;;;;;45.00;36.30;;;17.40;99.90;;;;;;4898453;29;20259;-49
2022/08/17 04:14:19;;;;;;;56.77;41.50;;;17.40;99.90;;;;;;4898437;29;20215;-47
2022/08/17 04:16:44;;;;;;;53.67;39.93;;;17.40;1.00;;;;;;4900275;29;20474;-47
2022/08/17 04:19:10;;;;;;;50.13;36.40;;;17.40;99.90;;;;;;4896129;29;20491;-47
2022/08/17 04:21:36;;;;;;;52.33;39.87;;;17.40;99.90;;;;;;4898034;29;20160;-47
2022/08/17 04:24:03;;;;;;;46.27;34.90;;;17.40;99.90;;;;;;4898295;29;20407;-48
2022/08/17 04:26:30;;;;;;;55.23;40.33;;;17.40;99.90;;;;;;4898004;29;20652;-47
2022/08/17 04:28:57;;;;;;;59.90;41.90;;;17.40;99.90;;;;;;4898085;29;20507;-47
2022/08/17 04:31:24;;;;;;;54.93;40.60;;;17.40;99.90;;;;;;4880935;29;20499;-49
2022/08/17 04:33:50;;;;;;;45.93;37.07;;;17.40;1.00;;;;;;4883071;29;20475;-47
2022/08/17 04:36:15;;;;;;;59.60;42.77;;;17.50;25.50;;;;;;4911276;29;20891;-47
2022/08/17 04:38:45;;;;;;;52.93;40.10;;;17.50;50.40;;;;;;4916568;29;20180;-47
2022/08/17 04:43:57;;;;;;;52.47;39.97;;;17.50;99.90;;;;;;4879114;29;20428;-47
2022/08/17 04:46:31;;;;;;;56.13;41.50;;;17.50;1.00;;;;;;4879155;29;20410;-47
2022/08/17 04:48:58;;;;;;;57.57;40.67;;;17.50;1.00;;;;;;4879093;29;20481;-47
2022/08/17 04:51:32;;;;;;;47.00;36.20;;;17.50;99.90;;;;;;4891888;29;20440;-47
2022/08/17 04:54:05;;;;;;;47.93;36.73;;;17.50;97.40;;;;;;4897605;29;20472;-47
2022/08/17 04:56:31;;;;;;;49.23;37.60;;;17.50;32.40;;;;;;4897399;29;20938;-47
2022/08/17 04:59:01;;;;;;;47.57;37.83;;;17.60;99.90;;;;;;4896070;29;20454;-47
2022/08/17 05:01:29;;;;;;;49.57;38.23;;;17.60;99.90;;;;;;4892081;29;20518;-47
2022/08/17 05:03:58;;;;;;;52.80;37.37;;;17.70;99.90;;;;;;4916408;29;20902;-47
2022/08/17 05:06:25;;;;;;;49.07;38.63;;;17.70;99.90;;;;;;4916394;29;20419;-47
2022/08/17 05:08:51;;;;;;;50.10;38.20;;;17.80;99.90;;;;;;4909392;29;20440;-47
2022/08/17 05:11:17;;;;;;;46.03;35.97;;;17.90;1.00;;;;;;4895912;29;20436;-47
2022/08/17 05:13:43;;;;;;;51.90;41.03;;;17.90;99.90;;;;;;4897020;29;20843;-47
2022/08/17 05:16:09;;;;;;;50.57;37.10;;;18.00;64.40;;;;;;4896818;29;20424;-47
2022/08/17 05:18:37;;;;;;;44.00;35.17;;;18.10;1.00;;;;;;4896845;29;20487;-47
2022/08/17 05:21:03;;;;;;;46.30;34.80;;;18.20;1.00;;;;;;4893690;29;20445;-47
2022/08/17 05:23:29;;;;;;;45.17;36.17;;;18.30;99.90;;;;;;4896479;29;20468;-47
2022/08/17 05:25:55;;;;;;;47.93;38.00;;;18.50;1.00;;;;;;4895897;29;20458;-47
2022/08/17 05:28:25;;;;;;;43.63;35.23;;;18.60;99.90;;;;;;4896910;29;20435;-47
2022/08/17 05:30:53;;;;;;;40.87;33.53;;;18.70;6.90;;;;;;4896421;29;20424;-47
2022/08/17 05:33:25;;;;;;;49.70;39.80;;;18.80;1.00;;;;;;4884524;29;20464;-47
2022/08/17 05:35:53;;;;;;;48.60;38.20;;;18.90;1.00;;;;;;4878196;29;20429;-47
2022/08/17 05:38:21;;;;;;;43.20;35.10;;;19.00;99.90;;;;;;4878135;29;20480;-46
2022/08/17 05:40:47;;;;;;;47.33;35.30;;;19.20;99.90;;;;;;4878242;29;20959;-47
2022/08/17 05:43:16;;;;;;;43.07;35.57;;;19.30;5.20;;;;;;4887660;29;20452;-47
2022/08/17 05:45:56;;;;;;;44.03;35.80;;;19.40;1.00;;;;;;4896830;29;20416;-47
2022/08/17 05:48:24;;;;;;;41.37;35.00;;;19.60;1.00;;;;;;4896749;29;20414;-47
2022/08/17 05:51:07;;;;;;;44.37;35.97;;;19.80;1.00;;;;;;4896700;29;20440;-46
2022/08/17 05:54:04;;;;;;;47.03;33.37;;;19.90;99.90;;;;;;4895147;29;20459;-46
2022/08/17 05:56:41;;;;;;;40.17;33.63;;;20.10;99.90;;;;;;4895734;29;20491;-47
2022/08/17 05:59:36;;;;;;;46.70;34.00;;;20.30;99.90;;;;;;4905983;29;20441;-47
2022/08/17 06:02:05;;;;;;;35.90;31.20;;;20.60;47.40;;;;;;4877486;29;20425;-50
2022/08/17 06:04:46;;;;;;;40.13;33.57;;;20.90;1.00;;;;;;4878007;29;20483;-49
2022/08/17 06:07:33;;;;;;;44.73;34.77;;;21.10;1.00;;;;;;4877519;29;20429;-50
2022/08/17 06:10:45;;;;;;;38.90;30.23;;;21.40;1.00;;;;;;4883775;29;20530;-49
2022/08/17 06:13:30;;;;;;;34.37;29.00;;;21.60;1.00;;;;;;4894287;29;20443;-50
2022/08/17 06:16:03;;;;;;;37.13;30.63;;;21.80;1.00;;;;;;4894878;29;20910;-49
2022/08/17 06:18:52;;;;;;;40.43;30.80;;;22.00;1.00;;;;;;4895599;29;20484;-50
2022/08/17 06:21:18;;;;;;;37.60;29.10;;;22.40;1.00;;;;;;4894393;29;20464;-50
2022/08/17 06:23:50;;;;;;;37.30;29.23;;;22.70;1.00;;;;;;4895738;29;20424;-50
2022/08/17 06:26:24;;;;;;;35.13;29.57;;;22.90;1.00;;;;;;4913077;29;20532;-50
2022/08/17 06:28:57;;;;;;;35.00;29.60;;;23.00;99.90;;;;;;4914820;29;20422;-50
2022/08/17 06:31:27;;;;;;;31.30;27.87;;;23.10;99.90;;;;;;4914678;29;20890;-49
2022/08/17 06:33:55;;;;;;;30.40;25.73;;;23.40;99.90;;;;;;4914733;29;20430;-49
2022/08/17 06:36:42;;;;;;;35.73;27.70;;;23.60;99.90;;;;;;4896219;29;20535;-49
2022/08/17 06:39:34;;;;;;;31.83;27.73;;;23.90;99.90;;;;;;4893815;29;20480;-49
2022/08/17 06:42:12;;;;;;;30.13;26.07;;;24.00;99.90;;;;;;4899200;29;20444;-49
2022/08/17 06:45:13;;;;;;;32.83;25.87;;;24.20;99.90;;;;;;4892628;29;20436;-49
2022/08/17 06:48:05;;;;;;;25.67;22.90;;;24.30;99.90;;;;;;4898062;29;20942;-49
2022/08/17 06:50:39;;;;;;;27.73;23.17;;;24.50;99.90;;;;;;4901158;29;20420;-49
2022/08/17 06:53:05;;;;;;;31.03;24.80;;;24.70;99.90;;;;;;4904810;29;20973;-49
2022/08/17 06:55:46;;;;;;;25.80;22.97;;;24.90;99.90;;;;;;4901687;29;20412;-48
2022/08/17 06:58:13;;;;;;;25.53;22.83;;;25.10;99.90;;;;;;4901803;29;20678;-49
2022/08/17 07:00:42;;;;;;;28.17;23.60;;;25.20;99.90;;;;;;4902042;29;20427;-48
2022/08/17 07:03:19;;;;;;;27.33;22.23;;;25.30;99.90;;;;;;4901820;29;20424;-49
2022/08/17 07:05:58;;;;;;;24.63;21.20;;;25.40;99.90;;;;;;4898709;29;20420;-49
2022/08/17 07:08:33;;;;;;;27.07;21.87;;;25.60;99.90;;;;;;4900360;29;20538;-49
2022/08/17 07:11:11;;;;;;;23.47;19.77;;;25.70;99.90;;;;;;4897675;29;20447;-49
2022/08/17 07:13:52;;;;;;;27.73;20.47;;;25.80;99.90;;;;;;4901425;29;20448;-49
2022/08/17 07:16:30;;;;;;;21.20;19.00;;;26.00;99.90;;;;;;4897342;29;20455;-49
2022/08/17 07:18:58;;;;;;;25.33;20.60;;;26.20;99.90;;;;;;4901546;29;20538;-49
2022/08/17 07:22:01;;;;;;;23.70;21.13;;;26.30;99.90;;;;;;4900580;29;20431;-49
2022/08/17 07:24:49;;;;;;;24.10;18.23;;;26.40;99.90;;;;;;4900387;29;20447;-49
2022/08/17 07:27:27;;;;;;;24.53;17.70;;;26.60;99.90;;;;;;4901919;29;20907;-49
2022/08/17 07:30:07;;;;;;;19.07;16.60;;;26.90;99.90;;;;;;4894974;29;20456;-49
2022/08/17 07:32:42;;;;;;;21.47;17.73;;;27.20;99.90;;;;;;4901767;29;20915;-49
2022/08/17 07:35:09;;;;;;;23.43;18.83;;;27.60;99.90;;;;;;4888144;29;20870;-49
2022/08/17 07:37:43;;;;;;;18.07;16.03;;;27.90;99.90;;;;;;4898199;29;20507;-49
2022/08/17 07:40:16;;;;;;;16.17;14.67;;;28.10;99.90;;;;;;4900156;29;20440;-49
2022/08/17 07:42:42;;;;;;;19.40;16.53;;;28.30;99.90;;;;;;4894109;29;20455;-49
2022/08/17 07:48:17;;;;;;;20.30;15.20;;;28.30;99.90;;;;;;4887930;29;20444;-49
2022/08/17 07:50:37;;;;;;;15.53;13.83;;;28.80;99.90;;;;;;4899766;29;20494;-49
2022/08/17 07:53:24;;;;;;;15.60;14.00;;;29.00;99.90;;;;;;4906950;29;20463;-49
2022/08/17 07:55:52;;;;;;;18.60;15.40;;;28.90;99.90;;;;;;4908781;29;20639;-49
2022/08/17 07:58:22;;;;;;;15.37;13.27;;;28.90;99.90;;;;;;4891898;29;20471;-49
2022/08/17 08:01:08;;;;;;;15.33;13.20;;;28.70;99.90;;;;;;4898467;29;20836;-48
2022/08/17 08:03:41;;;;;;;14.47;12.90;;;28.60;99.90;;;;;;4896290;29;20454;-49
2022/08/17 08:06:19;;;;;;;18.60;12.10;;;28.40;99.90;;;;;;4898624;29;20408;-48
2022/08/17 08:08:50;;;;;;;14.27;12.97;;;28.30;99.90;;;;;;4898355;29;20459;-48
2022/08/17 08:11:31;;;;;;;14.43;12.60;;;28.20;99.90;;;;;;4896666;29;20459;-49
2022/08/17 08:14:28;;;;;;;13.27;11.87;;;28.20;99.90;;;;;;4894643;29;20451;-49
2022/08/17 08:17:03;;;;;;;13.63;12.20;;;28.40;99.90;;;;;;4896885;29;20582;-48
2022/08/17 08:19:30;;;;;;;13.73;11.40;;;28.70;99.90;;;;;;4896846;29;20500;-49
2022/08/17 08:21:57;;;;;;;18.27;11.50;;;28.90;99.90;;;;;;4887490;29;20453;-49
2022/08/17 08:24:54;;;;;;;19.53;12.73;;;29.10;99.90;;;;;;4880227;29;20445;-47
2022/08/17 08:27:43;;;;;;;17.90;11.33;;;29.30;99.90;;;;;;4894549;29;20542;-47
2022/08/17 08:30:14;;;;;;;18.83;10.67;;;29.50;99.90;;;;;;4897849;29;20424;-47
2022/08/17 08:33:04;;;;;;;11.20;10.10;;;29.60;99.90;;;;;;4897596;29;20917;-49
2022/08/17 08:35:54;;;;;;;11.70;10.60;;;29.60;99.90;;;;;;4897685;29;20428;-47
2022/08/17 08:38:52;;;;;;;11.70;9.90;;;29.70;99.90;;;;;;4897548;29;20480;-47
2022/08/17 08:41:20;;;;;;;12.73;11.40;;;29.80;99.90;;;;;;4897644;29;20412;-47
2022/08/17 08:44:16;;;;;;;12.20;9.63;;;30.10;99.90;;;;;;4897725;29;20494;-47
2022/08/17 08:46:58;;;;;;;10.63;9.20;;;30.60;99.90;;;;;;4887091;29;20485;-47
2022/08/17 08:49:49;;;;;;;15.50;9.63;;;30.90;99.90;;;;;;4897557;29;20424;-47
2022/08/17 08:52:29;;;;;;;12.30;9.53;;;30.90;99.90;;;;;;4898604;29;20475;-47
2022/08/17 08:55:34;;;;;;;9.87;8.47;;;31.10;99.90;;;;;;4916604;29;20954;-47
2022/08/17 08:58:06;;;;;;;12.27;8.73;;;31.70;99.90;;;;;;4916194;29;20848;-47
2022/08/17 09:00:37;;;;;;;9.53;8.40;;;32.20;99.90;;;;;;4916121;29;20908;-48
2022/08/17 09:03:11;;;;;;;10.63;8.60;;;32.50;99.90;;;;;;4916260;29;20412;-48
2022/08/17 09:06:01;;;;;;;9.47;8.43;;;32.70;99.90;;;;;;4915746;29;20433;-47
2022/08/17 09:09:08;;;;;;;10.40;8.40;;;32.80;99.90;;;;;;4916130;29;20730;-48
2022/08/17 09:12:02;;;;;;;10.67;7.70;;;32.80;99.90;;;;;;4915994;29;20411;-48
2022/08/17 09:14:39;;;;;;;8.90;8.00;;;33.10;99.90;;;;;;4916019;29;20411;-48
2022/08/17 09:17:32;;;;;;;9.10;8.30;;;33.10;99.90;;;;;;4915848;29;20481;-48
2022/08/17 09:20:23;;;;;;;9.23;7.60;;;33.30;99.90;;;;;;4902681;29;20502;-48
2022/08/17 09:22:56;;;;;;;9.27;7.47;;;33.20;99.90;;;;;;4893703;29;20437;-50
2022/08/17 09:25:27;;;;;;;8.13;7.33;;;33.20;99.90;;;;;;4896937;29;20404;-50
2022/08/17 09:28:18;;;;;;;13.23;7.83;;;33.10;99.90;;;;;;4897096;29;20451;-50
2022/08/17 09:30:46;;;;;;;8.33;7.53;;;33.20;99.90;;;;;;4896657;29;20463;-50
2022/08/17 09:33:17;;;;;;;9.60;7.90;;;33.10;99.90;;;;;;4896754;29;20483;-50
2022/08/17 09:35:52;;;;;;;8.60;7.73;;;33.20;99.90;;;;;;4896704;29;20420;-49
2022/08/17 09:38:30;;;;;;;8.67;7.60;;;33.10;99.90;;;;;;4896687;29;20463;-50
2022/08/17 09:41:03;;;;;;;11.83;7.90;;;33.10;99.90;;;;;;4879980;29;20440;-49
2022/08/17 09:43:55;;;;;;;8.60;7.30;;;32.70;99.90;;;;;;4895452;29;20787;-49
2022/08/17 09:46:39;;;;;;;9.30;7.47;;;32.40;99.90;;;;;;4896424;29;20412;-49
2022/08/17 09:49:08;;;;;;;9.30;8.20;;;32.30;99.90;;;;;;4895551;29;20436;-49
2022/08/17 09:52:06;;;;;;;9.07;8.17;;;32.10;99.90;;;;;;4894693;29;20963;-49
2022/08/17 09:54:36;;;;;;;12.23;8.33;;;32.20;99.90;;;;;;4894316;29;20492;-49
2022/08/17 09:57:07;;;;;;;8.63;7.73;;;32.20;99.90;;;;;;4894714;29;20487;-49
2022/08/17 10:00:37;;;;;;;11.10;8.27;;;32.40;99.90;;;;;;4896185;29;20449;-49
2022/08/17 10:03:05;;;;;;;11.70;8.20;;;32.40;99.90;;;;;;4893151;29;21099;-49
2022/08/17 10:05:46;;;;;;;9.20;8.30;;;32.40;99.90;;;;;;4896434;29;20999;-49
2022/08/17 10:08:18;;;;;;;8.97;8.07;;;32.40;99.90;;;;;;4895404;29;20499;-49
2022/08/17 10:10:58;;;;;;;10.87;9.00;;;32.60;99.90;;;;;;4900735;29;20448;-49
2022/08/17 10:13:27;;;;;;;8.80;8.00;;;32.60;99.90;;;;;;4888341;29;20492;-49
2022/08/17 10:16:13;;;;;;;8.97;8.17;;;32.80;99.90;;;;;;4878750;29;20795;-50
2022/08/17 10:19:01;;;;;;;9.33;8.30;;;32.90;99.90;;;;;;4877102;29;20496;-49
2022/08/17 10:27:34;;;;;;;10.53;8.43;;;33.40;99.90;;;;;;4855339;29;20445;-50
2022/08/17 10:30:03;;;;;;;10.37;9.47;;;33.10;99.90;;;;;;4890032;29;20547;-49
2022/08/17 10:32:32;;;;;;;17.50;9.87;;;32.60;99.90;;;;;;4895792;29;20906;-50
2022/08/17 10:35:00;;;;;;;13.30;9.23;;;32.30;99.90;;;;;;4887632;29;20915;-49
2022/08/17 10:38:02;;;;;;;9.70;8.30;;;32.50;99.90;;;;;;4914705;29;20499;-49
2022/08/17 10:40:49;;;;;;;9.60;8.80;;;32.80;99.90;;;;;;4903968;29;20485;-49
2022/08/17 10:43:25;;;;;;;11.20;8.67;;;32.90;99.90;;;;;;4895815;29;20423;-49
2022/08/17 10:46:02;;;;;;;10.63;9.00;;;32.90;99.90;;;;;;4895868;29;20414;-49
2022/08/17 10:48:32;;;;;;;8.10;7.40;;;32.80;99.90;;;;;;4891247;29;20494;-49
2022/08/17 10:51:08;;;;;;;8.80;8.00;;;32.70;99.90;;;;;;4885385;29;20451;-49
2022/08/17 10:53:34;;;;;;;9.03;8.10;;;32.90;99.90;;;;;;4878759;29;20435;-49
2022/08/17 10:56:12;;;;;;;9.33;8.47;;;32.90;99.90;;;;;;4895560;29;20522;-49
2022/08/17 10:58:54;;;;;;;10.10;8.50;;;32.90;99.90;;;;;;4897827;29;21028;-49
2022/08/17 11:01:31;;;;;;;10.80;8.80;;;32.90;99.90;;;;;;4895533;29;20414;-49
2022/08/17 11:04:20;;;;;;;12.30;8.60;;;32.80;99.90;;;;;;4882635;29;20480;-49
2022/08/17 11:07:20;;;;;;;9.27;8.50;;;32.80;99.90;;;;;;4899483;29;20450;-49
2022/08/17 11:09:57;;;;;;;13.20;9.30;;;32.50;99.90;;;;;;4914414;29;20928;-49
2022/08/17 11:12:39;;;;;;;8.90;7.93;;;32.40;99.90;;;;;;4903736;29;20450;-49
2022/08/17 11:15:19;;;;;;;13.27;8.43;;;32.30;99.90;;;;;;4887971;29;21242;-49
2022/08/17 11:18:05;;;;;;;9.47;8.40;;;32.30;99.90;;;;;;4877091;29;20488;-49
2022/08/17 11:20:54;;;;;;;9.37;8.00;;;32.30;99.90;;;;;;4876805;29;20496;-49
2022/08/17 11:23:31;;;;;;;14.30;7.67;;;32.50;99.90;;;;;;4876878;29;20872;-49
2022/08/17 11:26:02;;;;;;;10.83;7.90;;;32.40;99.90;;;;;;4877443;29;20463;-49
2022/08/17 11:28:43;;;;;;;8.93;7.33;;;32.20;99.90;;;;;;4879904;29;20483;-49
2022/08/17 11:31:43;;;;;;;8.50;7.70;;;32.20;99.90;;;;;;4880220;29;20772;-49
2022/08/17 11:34:20;;;;;;;8.93;8.00;;;32.20;99.90;;;;;;4893452;29;20458;-49
2022/08/17 11:37:04;;;;;;;9.23;7.10;;;32.30;99.90;;;;;;4888564;29;20850;-49
2022/08/17 11:39:42;;;;;;;9.90;7.77;;;32.30;99.90;;;;;;4905366;29;21270;-49
2022/08/17 11:42:45;;;;;;;8.03;7.33;;;32.10;99.90;;;;;;4896295;29;20463;-49
2022/08/17 11:45:32;;;;;;;8.23;7.33;;;32.20;99.90;;;;;;4898616;29;20498;-49
2022/08/17 11:54:03;;;;;;;7.77;6.63;;;32.40;99.90;;;;;;4880643;29;20473;-48
2022/08/17 11:56:34;;;;;;;9.83;7.43;;;32.40;99.90;;;;;;4880239;29;20754;-47
2022/08/17 11:59:01;;;;;;;8.17;7.37;;;32.30;99.90;;;;;;4880937;29;20440;-47
2022/08/17 12:01:28;;;;;;;9.07;7.30;;;32.30;99.90;;;;;;4898803;29;20873;-47
2022/08/17 12:04:14;;;;;;;9.00;7.20;;;32.10;99.90;;;;;;4899941;29;20489;-47
2022/08/17 12:06:49;;;;;;;8.17;7.43;;;31.80;99.90;;;;;;4897989;29;20863;-47
2022/08/17 12:09:25;;;;;;;8.67;7.73;;;31.60;99.90;;;;;;4882700;29;20443;-47
2022/08/17 12:12:14;;;;;;;8.30;7.57;;;31.40;99.90;;;;;;4881816;29;20415;-47
2022/08/17 12:14:46;;;;;;;8.83;8.13;;;31.50;99.90;;;;;;4880224;29;20476;-47
2022/08/17 12:17:14;;;;;;;8.90;7.83;;;31.50;99.90;;;;;;4879377;29;20578;-48
2022/08/17 12:19:41;;;;;;;10.17;8.10;;;31.50;99.90;;;;;;4887773;29;20591;-47
2022/08/17 12:22:43;;;;;;;8.60;7.87;;;31.50;99.90;;;;;;4891026;29;20449;-47
2022/08/17 12:25:16;;;;;;;9.30;8.40;;;31.70;99.90;;;;;;4880648;29;20499;-47
2022/08/17 12:27:48;;;;;;;13.33;8.43;;;31.70;99.90;;;;;;4891318;29;20454;-47
2022/08/17 12:30:17;;;;;;;8.47;7.67;;;31.80;99.90;;;;;;4894915;29;20451;-47
2022/08/17 12:32:46;;;;;;;10.50;8.77;;;31.80;99.90;;;;;;4897834;29;20419;-47
2022/08/17 12:35:19;;;;;;;8.80;7.50;;;31.70;99.90;;;;;;4897640;29;20428;-47
2022/08/17 12:37:48;;;;;;;13.93;7.60;;;31.70;99.90;;;;;;4904005;29;20481;-47
2022/08/17 12:40:25;;;;;;;8.60;7.90;;;31.60;99.90;;;;;;4916077;29;20423;-47
2022/08/17 12:43:17;;;;;;;8.70;7.90;;;31.40;99.90;;;;;;4916505;29;20429;-47
2022/08/17 12:45:44;;;;;;;8.30;7.60;;;31.20;99.90;;;;;;4916567;29;20503;-47
2022/08/17 12:48:12;;;;;;;10.07;8.03;;;31.00;99.90;;;;;;4915559;29;20427;-47
2022/08/17 12:50:43;;;;;;;13.83;8.10;;;30.80;99.90;;;;;;4896545;29;20444;-47
2022/08/17 12:53:20;;;;;;;11.00;7.80;;;30.60;99.90;;;;;;4896710;29;20447;-47
2022/08/17 12:55:47;;;;;;;8.53;7.63;;;30.50;99.90;;;;;;4896316;29;20462;-47
2022/08/17 12:58:23;;;;;;;8.27;7.57;;;30.40;99.90;;;;;;4897302;29;20923;-47
2022/08/17 13:01:03;;;;;;;10.03;7.27;;;30.30;99.90;;;;;;4896624;29;20486;-47
2022/08/17 13:03:36;;;;;;;8.83;7.70;;;30.20;99.90;;;;;;4896675;29;20479;-47
2022/08/17 13:06:06;;;;;;;12.00;7.23;;;30.20;99.90;;;;;;4897513;29;20401;-47
2022/08/17 13:08:38;;;;;;;8.03;6.83;;;30.00;99.90;;;;;;4897211;29;20480;-47
2022/08/17 13:11:08;;;;;;;7.07;6.40;;;30.00;99.90;;;;;;4897221;29;20873;-47
2022/08/17 13:13:37;;;;;;;8.17;7.03;;;29.90;99.90;;;;;;4896304;29;20414;-47
2022/08/17 13:16:11;;;;;;;8.03;7.33;;;29.80;99.90;;;;;;4895789;29;20792;-47
2022/08/17 13:19:03;;;;;;;12.10;6.90;;;29.80;99.90;;;;;;4896918;29;20493;-47
2022/08/17 13:21:29;;;;;;;8.43;6.80;;;29.70;99.90;;;;;;4897044;29;20424;-47
2022/08/17 13:24:10;;;;;;;8.90;6.97;;;29.70;99.90;;;;;;4900269;29;20451;-47
2022/08/17 13:26:35;;;;;;;7.63;7.03;;;29.70;99.90;;;;;;4905279;29;20432;-47
2022/08/17 13:29:06;;;;;;;11.70;7.20;;;29.70;99.90;;;;;;4882642;29;20865;-47
2022/08/17 13:31:35;;;;;;;8.03;7.33;;;29.60;99.90;;;;;;4890219;29;20219;-47
2022/08/17 13:34:31;;;;;;;8.77;8.00;;;29.50;99.90;;;;;;4896812;29;20883;-47
2022/08/17 13:39:52;;;;;;;9.10;7.37;;;29.40;99.90;;;;;;4884457;29;20509;-47
2022/08/17 13:42:39;;;;;;;8.47;7.67;;;29.40;99.90;;;;;;4877699;29;20864;-47